Tiempo atmosférico en la estación meteorológica de Zorita, Cáceres (413 m.)



Fecha
DESCASC
Temp. máxima en grados centígrados (hora)
DESCASC
Temp. mínima en grados centígrados (hora)
DESCASC
Temp. media en grados centígrados
DESCASC
Racha de viento máxima en m/sg (hora)
DESCASC
Velocidad máxima media en intervalos de 10 minutos(hora)
DESCASC
Precipitaciones diarias en mm
DESCASC
Precipitaciones de 00:00 a 06:00 en mm
DESCASC
Precipitaciones de 06:00 a 12:00 en mm
DESCASC
Precipitaciones de 12:00 a 18:00 en mm
DESCASC
Precipitaciones de 18:00 a 24:00 en mm
DESCASC
09-01-2021 3 (14:50) 1.8 (00:00) 2.4 5.56 (23:20) 3.89 (14:00) 5.6 1.6 2 1.6 0.4
08-01-2021 5.2 (14:50) 0.3 (00:00) 2.7 11.67 (11:10) 8.06 (11:10) 8.6 0 1.2 4 3.4
04-01-2021 7 (16:00) 0.3 (00:00) 3.7 6.94 (01:40) 5.83 (01:40) 0 0 0 0 0
05-01-2021 7.1 (17:10) -1.5 (-00:0) 2.8 5.28 (06:40) 4.17 (07:00) 0 0 0 0 0
07-01-2021 7.4 (16:00) 0.9 (00:00) 4.2 11.11 (11:40) 8.06 (11:50) 0 0 0 0 0
31-12-2020 7.6 (20:10) -0.9 (-00:0) 3.3 10.28 (23:59) 6.67 (22:40) 1.2 0 0 0 1.2
02-01-2021 8.2 (15:00) 0.1 (00:00) 4.1 11.67 (13:20) 8.61 (11:50) 0 0 0 0 0
06-01-2021 8.3 (14:30) -2.4 (-00:0) 3 8.89 (14:40) 6.39 (14:50) 0 0 0 0 0
03-01-2021 8.5 (15:40) -1.2 (-00:0) 3.6 7.5 (16:10) 5 (16:00) 0 0 0 0 0
01-01-2021 8.6 (14:10) 1.7 (00:00) 5.2 11.67 (07:20) 8.33 (07:20) 0 0 0 0 0
27-12-2020 9.5 (16:30) -1.1 (-00:0) 4.2 9.17 (23:50) 6.39 (23:50) 0 0 0 0 0
30-12-2020 9.5 (16:10) 0.9 (00:00) 5.2 12.5 (07:10) 9.72 (07:00) 0 0 0 0 0
10-01-2021 9.7 (14:00) 0.7 (23:00) 5.2 7.22 (01:20) 5 (01:30) 0.4 0.2 0 0.2 0
12-01-2021 9.8 (16:30) -2.1 (-00:0) 3.9 3.33 (14:10) 2.78 (06:00) 0 0 0 0 0
14-01-2021 10 (15:40) -0.2 (07:40) 4.9 4.44 (15:40) 3.33 (23:50) 0 0 0 0 0
11-01-2021 10.2 (16:30) -1.8 (-00:0) 4.2 5 (21:30) 3.89 (22:40) 0 0 0 0 0
26-12-2020 10.4 (15:20) 0.3 (00:00) 5.3 9.17 (02:10) 7.22 (02:30) 0 0 0 0 0
29-12-2020 10.6 (15:00) 2.1 (00:00) 6.4 12.22 (16:30) 8.89 (16:30) 0 0 0 0 0
13-01-2021 10.6 (16:00) -1.5 (-00:0) 4.6 3.89 (16:20) 2.78 (16:30) 0 0 0 0 0
28-12-2020 11.3 (14:50) 4.3 (00:00) 7.8 19.17 (07:40) 12.78 (03:30) 1.4 0.2 1.2 0 0
19-01-2021 11.5 (16:10) 5.8 (00:00) 8.7 6.39 (07:10) 4.72 (04:20) 0 0 0 0 0
15-01-2021 12.1 (15:10) 0 (00:00) 6.1 4.17 (00:10) 3.61 (19:40) 0 0 0 0 0
21-01-2021 12.4 (15:10) 8.8 (00:00) 10.6 14.17 (17:20) 8.61 (18:10) 6.8 0.4 0.4 2 4
25-12-2020 12.4 (13:50) 3.8 (00:00) 8.1 11.39 (14:10) 7.78 (14:10) 0 0 0 0 0
23-12-2020 12.7 (00:20) 8.2 (00:00) 10.4 5.56 (01:10) 4.17 (01:10) 0 0 0 0 0
24-12-2020 12.9 (15:40) 7.9 (00:00) 10.4 5.28 (13:20) 4.72 (20:00) 1.4 0.2 1.2 0 0
16-01-2021 13.4 (15:50) 1.1 (00:00) 7.2 3.61 (16:00) 2.5 (16:10) 0 0 0 0 0
17-01-2021 14.4 (16:00) 1.8 (00:00) 8.1 3.61 (10:00) 3.06 (10:00) 0 0 0 0 0
20-01-2021 14.4 (14:30) 7.7 (00:00) 11 11.67 (16:20) 8.89 (16:20) 19.2 0 14.8 0.6 3.8
18-01-2021 16.1 (15:40) 3.1 (00:00) 9.6 6.11 (12:50) 4.17 (14:40) 0 0 0 0 0

Gráficas

Temp. máximas Temp. mínimas Temp. medias Precipitaciones Rachas de viento máximas Velocidades máximas media en intervalos de 10 minutos

Datos horarios

Fecha y hora oficial Temperatura (ºC) Velocidad del viento (km/h) Dirección del viento Racha (km/h) Dirección de racha Precipitación (mm) Presión (hPa) Tendencia (hPa) Humedad (%)
2021-01-21 23:00:00 10.8 16 Sudoeste 24 Sudoeste 1.4 -- -- 98
2021-01-21 22:00:00 10.9 9 Sudoeste 20 Sudoeste 1.4 -- -- 97
2021-01-21 21:00:00 11 16 Sudoeste 23 Sudoeste 0 -- -- 94
2021-01-21 20:00:00 11.1 13 Sudoeste 42 Sudoeste 0 -- -- 94
2021-01-21 19:00:00 11.7 24 Sudoeste 43 Sudoeste 0.2 -- -- 91
2021-01-21 18:00:00 12 30 Sudoeste 51 Sudoeste 0.6 -- -- 90
2021-01-21 17:00:00 12 18 Sudoeste 40 Sudoeste 0.4 -- -- 93
2021-01-21 16:00:00 11.8 21 Sudoeste 45 Sudoeste 0.2 -- -- 95
2021-01-21 15:00:00 12.3 20 Sudoeste 36 Sudoeste 0.4 -- -- 93
2021-01-21 14:00:00 10.9 18 Sudoeste 36 Sudoeste 0.2 -- -- 97
2021-01-21 13:00:00 10.6 28 Sudoeste 41 Sudoeste 0.2 -- -- 97
2021-01-21 12:00:00 10.4 26 Sudoeste 35 Sudoeste 0 -- -- 96
2021-01-21 11:00:00 10.1 20 Sudoeste 30 Sudoeste 0 -- -- 98
2021-01-21 10:00:00 9.7 17 Sudoeste 27 Sudoeste 0.2 -- -- 99
2021-01-21 09:00:00 9.1 9 Sudoeste 20 Sudoeste 0.2 -- -- 99
2021-01-21 08:00:00 9.1 11 Sudoeste 21 Sudoeste 0 -- -- 98
2021-01-21 07:00:00 9.3 9 Oeste 16 Sudoeste 0 -- -- 98
2021-01-21 06:00:00 9.2 6 Sudoeste 27 Sudoeste 0.2 -- -- 98
2021-01-21 05:00:00 9.9 17 Sudoeste 26 Sudoeste 0 -- -- 98
2021-01-21 04:00:00 9.9 13 Oeste 26 Oeste 0 -- -- 97
2021-01-21 03:00:00 9.9 15 Sudoeste 30 Sudoeste 0.2 -- -- 98
2021-01-21 02:00:00 9.8 19 Sudoeste 27 Sudoeste 0 -- -- 98
2021-01-21 01:00:00 9.6 17 Sudoeste 27 Sudoeste 0 -- -- 97
2021-01-21 00:00:00 9.7 14 Sudoeste 25 Sudoeste 0 -- -- 97
2021-01-20 23:00:00 9.9 16 Sudoeste 30 Sudoeste 0 -- -- 97
2021-01-20 22:00:00 10.1 20 Sudoeste 28 Sudoeste 0.2 -- -- 97
2021-01-20 21:00:00 9.9 13 Sudoeste 22 Sudoeste 0.6 -- -- 96
2021-01-20 20:00:00 10 13 Sudoeste 30 Oeste 1 -- -- 96
2021-01-20 19:00:00 10.5 23 Sudoeste 36 Sudoeste 2 -- -- 96
2021-01-20 18:00:00 10.9 17 Oeste 35 Sudoeste 0 -- -- 93
2021-01-20 17:00:00 11.5 26 Sudoeste 42 Sudoeste 0.2 -- -- 87
2021-01-20 16:00:00 13 18 Sudoeste 30 Sudoeste 0.2 -- -- 80
2021-01-20 15:00:00 12.8 20 Sudoeste 36 Sudoeste 0.2 -- -- 85
2021-01-20 14:00:00 12.5 21 Sur 30 Sur 0 -- -- 83
2021-01-20 13:00:00 11.5 13 Sur 20 Sur 0 -- -- 86
2021-01-20 12:00:00 10.6 12 Sur 19 Sur 0 -- -- 87
2021-01-20 11:00:00 9.2 11 Este 30 Este 0 -- -- 94
2021-01-20 10:00:00 8.2 17 Este 38 Este 2 -- -- 97
2021-01-20 09:00:00 7.9 13 Este 18 Este 6.8 -- -- 95
2021-01-20 08:00:00 8 9 Este 20 Este 5.8 -- -- 94
2021-01-20 07:00:00 8 12 Este 29 Este 0.2 -- -- 88
2021-01-20 06:00:00 8 19 Este 30 Este 0 -- -- 81
2021-01-20 05:00:00 8.4 18 Este 34 Este 0 -- -- 76
2021-01-20 04:00:00 8.6 17 Este 26 Este 0 -- -- 73
2021-01-20 03:00:00 8.4 13 Nordeste 27 Este 0 -- -- 74
2021-01-20 02:00:00 8.5 12 Este 26 Este 0 -- -- 73
2021-01-20 01:00:00 8.4 12 Este 21 Este 0 -- -- 72
2021-01-20 00:00:00 8.3 10 Este 18 Este 0 -- -- 73
2021-01-19 23:00:00 8.5 11 Este 16 Este 0 -- -- 72
2021-01-19 22:00:00 8.6 9 Este 18 Este 0 -- -- 70
2021-01-19 21:00:00 9 11 Este 21 Este 0 -- -- 66
2021-01-19 20:00:00 9.4 11 Nordeste 14 Este 0 -- -- 61
2021-01-19 19:00:00 9.3 8 Nordeste 11 Este 0 -- -- 62
2021-01-19 18:00:00 9.7 7 Este 10 Este 0 -- -- 62
2021-01-19 17:00:00 11.2 4 Sudeste 12 Este 0 -- -- 55
2021-01-19 16:00:00 11.2 5 Sudeste 11 Sudeste 0 -- -- 56
2021-01-19 15:00:00 11.3 2 Sur 14 Sur 0 -- -- 58
2021-01-19 14:00:00 10.5 8 Sur 15 Sur 0 -- -- 60
2021-01-19 13:00:00 11.1 7 Sur 17 Sur 0 -- -- 61
2021-01-19 12:00:00 10.2 12 Sur 19 Sudeste 0 -- -- 62
2021-01-19 11:00:00 8.9 14 Este 19 Este 0 -- -- 62
2021-01-19 10:00:00 7.6 13 Este 21 Este 0 -- -- 62
2021-01-19 09:00:00 6.2 13 Este 20 Este 0 -- -- 66
2021-01-19 08:00:00 6.3 13 Este 23 Este 0 -- -- 65
2021-01-19 07:00:00 7.4 16 Este 22 Este 0 -- -- 61
2021-01-19 06:00:00 7.6 13 Este 18 Este 0 -- -- 60
2021-01-19 05:00:00 7.9 13 Nordeste 21 Este 0 -- -- 59
2021-01-19 04:00:00 7.5 15 Este 18 Este 0 -- -- 60
2021-01-19 03:00:00 8.9 14 Este 19 Este 0 -- -- 55
2021-01-19 02:00:00 9.5 11 Nordeste 19 Este 0 -- -- 53
2021-01-19 01:00:00 9.1 15 Este 19 Este 0 -- -- 55
2021-01-19 00:00:00 10.5 14 Nordeste 21 Nordeste 0 -- -- 51
2021-01-18 23:00:00 10.4 13 Nordeste 17 Nordeste 0 -- -- 50
2021-01-18 22:00:00 7.9 10 Nordeste 13 Nordeste 0 -- -- 59
2021-01-18 21:00:00 8.3 4 Norte 11 Noroeste 0 -- -- 57
2021-01-18 20:00:00 8.7 10 Noroeste 10 Noroeste 0 -- -- 61
2021-01-18 19:00:00 10.9 0 Calma 5 Sur 0 -- -- 53
2021-01-18 18:00:00 14.4 3 Sudeste 12 Sudeste 0 -- -- 45
2021-01-18 17:00:00 15.5 10 Sudeste 17 Sudeste 0 -- -- 42
2021-01-18 16:00:00 16 13 Sudeste 18 Sudeste 0 -- -- 37
2021-01-18 15:00:00 15.7 13 Este 21 Este 0 -- -- 36
2021-01-18 14:00:00 15.1 14 Sudeste 20 Sudeste 0 -- -- 38
2021-01-18 13:00:00 14.2 14 Sudeste 22 Sudeste 0 -- -- 42
2021-01-18 12:00:00 12.4 12 Este 19 Este 0 -- -- 49
2021-01-18 11:00:00 9.3 14 Este 19 Este 0 -- -- 51
2021-01-18 10:00:00 7.8 10 Este 15 Este 0 -- -- 53
2021-01-18 09:00:00 5 12 Nordeste 15 Nordeste 0 -- -- 59
2021-01-18 08:00:00 6.5 13 Este 17 Este 0 -- -- 52
2021-01-18 07:00:00 4.1 6 Este 11 Nordeste 0 -- -- 67
2021-01-18 06:00:00 3.1 3 Nordeste 4 Nordeste 0 -- -- 70
2021-01-18 05:00:00 5 0 Calma 4 Noroeste 0 -- -- 67
2021-01-18 04:00:00 5.3 3 Noroeste 8 Este 0 -- -- 69
2021-01-18 03:00:00 4.3 7 Este 8 Este 0 -- -- 75
2021-01-18 02:00:00 5 5 Norte 9 Este 0 -- -- 72
2021-01-18 01:00:00 8.2 8 Este 13 Este 0 -- -- 65
2021-01-18 00:00:00 7.5 11 Este 13 Este 0 -- -- 68
2021-01-17 23:00:00 6.2 7 Nordeste 10 Nordeste 0 -- -- 70
2021-01-17 22:00:00 5.6 8 Nordeste 9 Nordeste 0 -- -- 67
2021-01-17 21:00:00 6.2 7 Nordeste 9 Norte 0 -- -- 69
2021-01-17 20:00:00 7.2 3 Noroeste 6 Oeste 0 -- -- 70
2021-01-17 19:00:00 8.5 3 Norte 6 Oeste 0 -- -- 68
2021-01-17 18:00:00 12.8 0 Calma 10 Sudoeste 0 -- -- 55
2021-01-17 17:00:00 13.7 8 Sudoeste 13 Sudoeste 0 -- -- 53
2021-01-17 16:00:00 14.4 9 Sudoeste 13 Sudoeste 0 -- -- 53
2021-01-17 15:00:00 13.7 8 Sudoeste 12 Sudoeste 0 -- -- 51
2021-01-17 14:00:00 13 5 Sudoeste 9 Sudoeste 0 -- -- 56
2021-01-17 13:00:00 11.4 4 Sudeste 10 Sudoeste 0 -- -- 64
2021-01-17 12:00:00 10.9 3 Sur 6 Sur 0 -- -- 64
2021-01-17 11:00:00 8.8 2 Oeste 9 Noroeste 0 -- -- 69
2021-01-17 10:00:00 5.8 11 Noroeste 13 Noroeste 0 -- -- 75
2021-01-17 09:00:00 3.5 7 Noroeste 8 Noroeste 0 -- -- 79
2021-01-17 08:00:00 3.5 5 Noroeste 6 Noroeste 0 -- -- 83
2021-01-17 07:00:00 3.4 6 Este 8 Este 0 -- -- 84
2021-01-17 06:00:00 3.7 5 Norte 10 Nordeste 0 -- -- 84
2021-01-17 05:00:00 3 2 Sudeste 4 Este 0 -- -- 88
2021-01-17 04:00:00 2.9 3 Nordeste 5 Nordeste 0 -- -- 84
2021-01-17 03:00:00 4.1 3 Nordeste -- -- 0 -- -- 78
2021-01-17 02:00:00 3.4 5 Nordeste 6 Nordeste 0 -- -- 78
2021-01-17 01:00:00 4.2 5 Nordeste 8 Este 0 -- -- 78
2021-01-17 00:00:00 4.3 6 Este 8 Nordeste 0 -- -- 81
2021-01-16 23:00:00 5.7 3 Este 8 Este 0 -- -- 79
2021-01-16 22:00:00 4.8 3 Nordeste 9 Nordeste 0 -- -- 79
2021-01-16 21:00:00 5.6 8 Nordeste 9 Nordeste 0 -- -- 80
2021-01-16 20:00:00 7 2 Sur 6 Noroeste 0 -- -- 74
2021-01-16 19:00:00 9.2 0 Calma 7 Oeste 0 -- -- 66
2021-01-16 18:00:00 12.4 2 Oeste 6 Sudoeste 0 -- -- 57
2021-01-16 17:00:00 13 4 Sur 12 Sudoeste 0 -- -- 57
2021-01-16 16:00:00 13 8 Sudoeste 13 Sudoeste 0 -- -- 53
2021-01-16 15:00:00 12.5 4 Sudeste 10 Sudoeste 0 -- -- 55
2021-01-16 14:00:00 11.5 7 Sudoeste 10 Sudoeste 0 -- -- 59
2021-01-16 13:00:00 9.9 4 Sudeste 8 Sudeste 0 -- -- 59
2021-01-16 12:00:00 8.1 6 Sudeste 11 Sudeste 0 -- -- 65
2021-01-16 11:00:00 6.3 4 Sudeste 6 Sudeste 0 -- -- 73
2021-01-16 10:00:00 3.3 3 Noroeste 9 Noroeste 0 -- -- 87
2021-01-16 09:00:00 1.7 0 Calma 5 Sudeste 0 -- -- 90
2021-01-16 08:00:00 1.4 3 Este 8 Nordeste 0 -- -- 93
2021-01-16 07:00:00 1.4 2 Este 4 Sudeste 0 -- -- 91
2021-01-16 06:00:00 2.4 2 Este 6 Noroeste 0 -- -- 88
2021-01-16 05:00:00 2.5 6 Noroeste 6 Noroeste 0 -- -- 90
2021-01-16 04:00:00 1.8 2 Nordeste 5 Nordeste 0 -- -- 89
2021-01-16 03:00:00 2.2 2 Nordeste 4 Sur 0 -- -- 83
2021-01-16 02:00:00 3.6 3 Sudeste 4 Sudeste 0 -- -- 78
2021-01-16 01:00:00 4 2 Noroeste 9 Nordeste 0 -- -- 76
2021-01-16 00:00:00 4.4 8 Nordeste 10 Nordeste 0 -- -- 76
2021-01-15 23:00:00 4.4 4 Nordeste 6 Nordeste 0 -- -- 76
2021-01-15 22:00:00 4.2 3 Nordeste 7 Norte 0 -- -- 78
2021-01-15 21:00:00 4.4 6 Norte 8 Norte 0 -- -- 74
2021-01-15 20:00:00 6.6 8 Norte 14 Noroeste 0 -- -- 67
2021-01-15 19:00:00 6 6 Noroeste 12 Oeste 0 -- -- 77
2021-01-15 18:00:00 9.6 5 Sudoeste 10 Sudoeste 0 -- -- 65
2021-01-15 17:00:00 11.5 6 Sudoeste 12 Sudoeste 0 -- -- 57
2021-01-15 16:00:00 11.2 6 Sudoeste 13 Oeste 0 -- -- 56
2021-01-15 15:00:00 11.9 5 Sur 9 Sur 0 -- -- 57
2021-01-15 14:00:00 9.5 5 Sudoeste 11 Sudoeste 0 -- -- 69
2021-01-15 13:00:00 8.8 5 Sur 9 Sur 0 -- -- 69
2021-01-15 12:00:00 6.1 4 Sudoeste 9 Sur 0 -- -- 80
2021-01-15 11:00:00 5.2 4 Sudeste 7 Este 0 -- -- 78
2021-01-15 10:00:00 2 7 Este 13 Este 0 -- -- 92
2021-01-15 09:00:00 0.4 6 Nordeste 8 Nordeste 0 -- -- 93
2021-01-15 08:00:00 0.8 3 Oeste 13 Oeste 0 -- -- 91
2021-01-15 07:00:00 1.1 8 Noroeste 10 Noroeste 0 -- -- 94
2021-01-15 06:00:00 1.6 0 Calma 4 Oeste 0 -- -- 94
2021-01-15 05:00:00 2.1 0 Calma 5 Norte 0 -- -- 94
2021-01-15 04:00:00 2.3 5 Nordeste 10 Este 0 -- -- 87
2021-01-15 03:00:00 1.3 6 Nordeste 9 Nordeste 0 -- -- 93
2021-01-15 02:00:00 1.9 5 Nordeste 8 Nordeste 0 -- -- 92
2021-01-15 01:00:00 3.1 7 Nordeste 15 Nordeste 0 -- -- 88
2021-01-15 00:00:00 3.6 10 Este 13 Nordeste 0 -- -- 89
2021-01-14 23:00:00 3 8 Este 12 Este 0 -- -- 91
2021-01-14 22:00:00 3.1 8 Este 10 Este 0 -- -- 92
2021-01-14 21:00:00 2.9 4 Norte 8 Oeste 0 -- -- 89
2021-01-14 20:00:00 3.5 3 Noroeste 8 Sudoeste 0 -- -- 86
2021-01-14 19:00:00 4.6 6 Oeste 9 Sudoeste 0 -- -- 81
2021-01-14 18:00:00 7.5 7 Sudoeste 10 Sur 0 -- -- 67
2021-01-14 17:00:00 9.4 8 Sur 12 Sudoeste 0 -- -- 64
2021-01-14 16:00:00 9.8 10 Sudoeste 16 Sudoeste 0 -- -- 61
2021-01-14 15:00:00 9.5 9 Sudoeste 15 Sudoeste 0 -- -- 59
2021-01-14 14:00:00 8.4 6 Sudoeste 12 Sudoeste 0 -- -- 60
2021-01-14 13:00:00 7.4 5 Sudoeste 11 Sur 0 -- -- 65
2021-01-14 12:00:00 6.2 5 Sudeste 9 Sudeste 0 -- -- 69
2021-01-14 11:00:00 4.4 0 Calma 7 Noroeste 0 -- -- 76
2021-01-14 10:00:00 1.7 3 Noroeste 5 Noroeste 0 -- -- 85
2021-01-14 09:00:00 0.2 0 Calma 6 Este 0 -- -- 88
2021-01-14 08:00:00 0.1 3 Este 5 Este 0 -- -- 87
2021-01-14 07:00:00 0.2 2 Sudeste 8 Noroeste 0 -- -- 86
2021-01-14 06:00:00 1 7 Noroeste 10 Noroeste 0 -- -- 86
2021-01-14 05:00:00 1.8 6 Este 11 Este 0 -- -- 78
2021-01-14 04:00:00 0.5 9 Nordeste 11 Nordeste 0 -- -- 83
2021-01-14 03:00:00 2.2 10 Nordeste 12 Nordeste 0 -- -- 81
2021-01-14 02:00:00 1 8 Nordeste 9 Nordeste 0 -- -- 80
2021-01-14 01:00:00 2 7 Nordeste 11 Este 0 -- -- 76
2021-01-14 00:00:00 2.6 6 Nordeste 9 Este 0 -- -- 74
2021-01-13 23:00:00 2.5 7 Nordeste 9 Nordeste 0 -- -- 75
2021-01-13 22:00:00 4.9 6 Noroeste 7 Noroeste 0 -- -- 70
2021-01-13 21:00:00 4 6 Noroeste 9 Noroeste 0 -- -- 74
2021-01-13 20:00:00 4.8 8 Noroeste 9 Noroeste 0 -- -- 71
2021-01-13 19:00:00 4.6 5 Noroeste 13 Oeste 0 -- -- 72
2021-01-13 18:00:00 7.9 8 Sudoeste 12 Sudoeste 0 -- -- 60
2021-01-13 17:00:00 9.6 8 Sudoeste 14 Sudoeste 0 -- -- 54
2021-01-13 16:00:00 10.6 8 Sudoeste 12 Sur 0 -- -- 51
2021-01-13 15:00:00 9.9 8 Sudoeste 11 Sudoeste 0 -- -- 50
2021-01-13 14:00:00 8.6 6 Sudoeste 10 Sudoeste 0 -- -- 49
2021-01-13 13:00:00 7.1 4 Oeste 9 Sudoeste 0 -- -- 52
2021-01-13 12:00:00 5.9 4 Sudoeste 7 Sudoeste 0 -- -- 55
2021-01-13 11:00:00 3.8 0 Calma 6 Sudoeste 0 -- -- 58
2021-01-13 10:00:00 2.3 3 Oeste 6 Noroeste 0 -- -- 61
2021-01-13 09:00:00 0.2 5 Noroeste 7 Noroeste 0 -- -- 61
2021-01-13 08:00:00 -0.3 3 Noroeste 5 Noroeste 0 -- -- 66
2021-01-13 07:00:00 -1.1 3 Norte 5 Norte 0 -- -- 71
2021-01-13 06:00:00 -0.4 2 Noroeste 6 Noroeste 0 -- -- 67
2021-01-13 05:00:00 0.1 5 Noroeste 7 Noroeste 0 -- -- 68
2021-01-13 04:00:00 -0.1 4 Nordeste 8 Nordeste 0 -- -- 68
2021-01-13 03:00:00 -0.5 3 Nordeste 5 Norte 0 -- -- 71
2021-01-13 02:00:00 0.2 0 Calma 7 Este 0 -- -- 65
2021-01-13 01:00:00 1.2 6 Nordeste 9 Nordeste 0 -- -- 60
2021-01-13 00:00:00 1.5 3 Noroeste 9 Norte 0 -- -- 62
2021-01-12 23:00:00 1 4 Este 6 Nordeste 0 -- -- 68
2021-01-12 22:00:00 2 4 Nordeste 7 Norte 0 -- -- 66
2021-01-12 21:00:00 2.8 0 Calma 5 Noroeste 0 -- -- 66
2021-01-12 20:00:00 3.8 3 Oeste 5 Noroeste 0 -- -- 60
2021-01-12 19:00:00 4.5 2 Noroeste 7 Sudoeste 0 -- -- 62
2021-01-12 18:00:00 7.7 6 Sudoeste 9 Sudoeste 0 -- -- 48
2021-01-12 17:00:00 9.5 8 Sudoeste 10 Sudoeste 0 -- -- 41
2021-01-12 16:00:00 9.7 5 Sudoeste 12 Sudoeste 0 -- -- 39
2021-01-12 15:00:00 8.9 7 Sudoeste 12 Sudeste 0 -- -- 42
2021-01-12 14:00:00 8.6 6 Sudeste 10 Sur 0 -- -- 39
2021-01-12 13:00:00 7.5 6 Sudeste 11 Sudeste 0 -- -- 39
2021-01-12 12:00:00 6 3 Sudeste 7 Sur 0 -- -- 47
2021-01-12 11:00:00 3.4 5 Sudoeste 7 Sudoeste 0 -- -- 57
2021-01-12 10:00:00 2.1 4 Nordeste 9 Nordeste 0 -- -- 55
2021-01-12 09:00:00 -1.7 7 Nordeste 10 Nordeste 0 -- -- 65
2021-01-12 08:00:00 -1.4 7 Nordeste 9 Nordeste 0 -- -- 62
2021-01-12 07:00:00 -0.9 5 Este 10 Noroeste 0 -- -- 59
2021-01-12 06:00:00 0.5 10 Noroeste 12 Noroeste 0 -- -- 50
2021-01-12 05:00:00 -1.1 4 Norte 6 Norte 0 -- -- 63
2021-01-12 04:00:00 -1.1 0 Calma 4 Noroeste 0 -- -- 62
2021-01-12 03:00:00 -0.9 3 Nordeste 8 Nordeste 0 -- -- 61
2021-01-12 02:00:00 -0.7 5 Nordeste 6 Nordeste 0 -- -- 61
2021-01-12 01:00:00 -0.4 4 Norte 8 Este 0 -- -- 61
2021-01-12 00:00:00 1.1 8 Este 11 Nordeste 0 -- -- 53
2021-01-11 23:00:00 3.5 10 Este 18 Nordeste 0 -- -- 41
2021-01-11 22:00:00 3.9 13 Nordeste 18 Nordeste 0 -- -- 41
2021-01-11 21:00:00 3.5 13 Nordeste 18 Este 0 -- -- 44
2021-01-11 20:00:00 2.6 9 Nordeste 12 Nordeste 0 -- -- 72
2021-01-11 19:00:00 5.6 3 Sudeste 9 Sur 0 -- -- 60
2021-01-11 18:00:00 8.2 8 Sur 9 Sudoeste 0 -- -- 48
2021-01-11 17:00:00 9.9 5 Sudoeste 12 Sur 0 -- -- 35
2021-01-11 16:00:00 9.8 3 Noroeste 13 Oeste 0 -- -- 37
2021-01-11 15:00:00 9.4 10 Sudoeste 15 Sudoeste 0 -- -- 42
2021-01-11 14:00:00 8.8 6 Sudoeste 15 Sudoeste 0 -- -- 45
2021-01-11 13:00:00 7.4 7 Oeste 13 Oeste 0 -- -- 49
2021-01-11 12:00:00 5.7 5 Oeste 9 Sudoeste 0 -- -- 59
2021-01-11 11:00:00 4.6 3 Sudoeste 6 Noroeste 0 -- -- 60
2021-01-11 10:00:00 1.8 5 Oeste 11 Noroeste 0 -- -- 75
2021-01-11 09:00:00 -1.5 8 Noroeste 11 Noroeste 0 -- -- 87
2021-01-11 08:00:00 -1.3 6 Noroeste 12 Oeste 0 -- -- 87
2021-01-11 07:00:00 -1 3 Nordeste 10 Noroeste 0 -- -- 87
2021-01-11 06:00:00 -0.9 9 Noroeste 15 Noroeste 0 -- -- 86
2021-01-11 05:00:00 -0.1 7 Noroeste 11 Noroeste 0 -- -- 78
2021-01-11 04:00:00 1.2 6 Oeste 13 Noroeste 0 -- -- 74
2021-01-11 03:00:00 1.1 3 Noroeste 7 Oeste 0 -- -- 73
2021-01-11 02:00:00 1.6 4 Nordeste 9 Nordeste 0 -- -- 71
2021-01-11 01:00:00 1.2 6 Este 8 Sudeste 0 -- -- 71
2021-01-11 00:00:00 1.6 0 Calma 7 Nordeste 0 -- -- 65
2021-01-10 23:00:00 0.7 2 Este 14 Norte 0 -- -- 71
2021-01-10 22:00:00 2.3 5 Norte 11 Nordeste 0 -- -- 64
2021-01-10 21:00:00 3 8 Nordeste 14 Nordeste 0 -- -- 64
2021-01-10 20:00:00 3.6 8 Este 17 Nordeste 0 -- -- 64
2021-01-10 19:00:00 4.1 10 Nordeste 21 Nordeste 0 -- -- 62
2021-01-10 18:00:00 5.9 13 Nordeste 22 Nordeste 0 -- -- 54
2021-01-10 17:00:00 7.1 14 Nordeste 21 Nordeste 0 -- -- 52
2021-01-10 16:00:00 7.6 7 Oeste 13 Oeste 0 -- -- 59
2021-01-10 15:00:00 8.1 10 Este 23 Este 0 -- -- 50
2021-01-10 14:00:00 9.7 9 Sudeste 18 Este 0 -- -- 46
2021-01-10 13:00:00 8.2 6 Noroeste 13 Este 0.2 -- -- 59
2021-01-10 12:00:00 6.2 9 Este 16 Nordeste 0 -- -- 74
2021-01-10 11:00:00 3.2 6 Noroeste 16 Noroeste 0 -- -- 85
2021-01-10 10:00:00 3.2 8 Este 13 Nordeste 0 -- -- 81
2021-01-10 09:00:00 2 8 Nordeste 16 Este 0 -- -- 86
2021-01-10 08:00:00 2.3 9 Este 14 Este 0 -- -- 84
2021-01-10 07:00:00 2.1 9 Nordeste 15 Este 0 -- -- 88
2021-01-10 06:00:00 2.2 10 Este 25 Este 0 -- -- 89
2021-01-10 05:00:00 2.7 14 Este 19 Nordeste 0 -- -- 87
2021-01-10 04:00:00 2.6 13 Nordeste 20 Nordeste 0 -- -- 87
2021-01-10 03:00:00 2.3 13 Nordeste 24 Nordeste 0 -- -- 87
2021-01-10 02:00:00 2.7 17 Nordeste 26 Este 0 -- -- 88
2021-01-10 01:00:00 2.6 11 Este 17 Nordeste 0.2 -- -- 93
2021-01-10 00:00:00 2.4 8 Este 20 Este 0.2 -- -- 93
2021-01-09 23:00:00 2.3 13 Este 19 Este 0 -- -- 96
2021-01-09 22:00:00 2.1 10 Este 17 Este 0 -- -- 97
2021-01-09 21:00:00 2.1 9 Sudeste 12 Sudeste 0 -- -- 97
2021-01-09 20:00:00 2.1 7 Sur 18 Sudeste 0 -- -- 96
2021-01-09 19:00:00 2.3 9 Sur 13 Sur 0.2 -- -- 96
2021-01-09 18:00:00 2.2 8 Sudeste 13 Sur 0.6 -- -- 95
2021-01-09 17:00:00 2.4 5 Sur 14 Sudeste 0.2 -- -- 95
2021-01-09 16:00:00 2.7 8 Sudeste 13 Sudeste 0.4 -- -- 94
2021-01-09 15:00:00 2.9 9 Este 15 Este 0.2 -- -- 94
2021-01-09 14:00:00 2.6 14 Este 17 Este 0 -- -- 94
2021-01-09 13:00:00 2.6 8 Sudeste 15 Sudeste 0.2 -- -- 96
2021-01-09 12:00:00 2.4 11 Sudeste 16 Sudeste 0.4 -- -- 97
2021-01-09 11:00:00 2.2 10 Sudeste 13 Sudeste 0.2 -- -- 98
2021-01-09 10:00:00 1.9 5 Sudeste 8 Sur 0.6 -- -- 98
2021-01-09 09:00:00 1.9 6 Sur 8 Sur 0.4 -- -- 98
2021-01-09 08:00:00 2 6 Sudeste 7 Sudeste 0.2 -- -- 98
2021-01-09 07:00:00 2.1 5 Sur 6 Sur 0.2 -- -- 97
2021-01-09 06:00:00 2.3 0 Calma 7 Sudoeste 0.4 -- -- 97
2021-01-09 05:00:00 2.3 6 Sudoeste 9 Oeste 0.2 -- -- 96
2021-01-09 04:00:00 2.5 7 Noroeste 10 Noroeste 0.4 -- -- 94
2021-01-09 03:00:00 2.7 5 Noroeste 10 Noroeste 0.4 -- -- 94
2021-01-09 02:00:00 2.8 4 Noroeste 10 Noroeste 0.2 -- -- 93
2021-01-09 01:00:00 2.9 5 Noroeste 13 Noroeste 0 -- -- 92
2021-01-09 00:00:00 2.7 11 Noroeste 17 Noroeste 0.2 -- -- 91
2021-01-08 23:00:00 2.8 6 Noroeste 13 Noroeste 0 -- -- 92
2021-01-08 22:00:00 2.9 8 Noroeste 11 Noroeste 1 -- -- 93
2021-01-08 21:00:00 3.8 5 Sudoeste 23 Nordeste 0.2 -- -- 86
2021-01-08 20:00:00 4.3 9 Nordeste 17 Nordeste 0.6 -- -- 86
2021-01-08 19:00:00 4 6 Nordeste 23 Este 1.4 -- -- 88
2021-01-08 18:00:00 4.1 12 Nordeste 24 Este 1.8 -- -- 84
2021-01-08 17:00:00 4.3 18 Este 32 Este 0.8 -- -- 83
2021-01-08 16:00:00 4.7 19 Este 32 Este 1 -- -- 80
2021-01-08 15:00:00 5.2 20 Nordeste 37 Este 0 -- -- 75
2021-01-08 14:00:00 4.9 21 Este 35 Este 0.2 -- -- 80
2021-01-08 13:00:00 4.6 24 Este 39 Este 0.2 -- -- 81
2021-01-08 12:00:00 3.8 24 Este 42 Este 1.2 -- -- 84
2021-01-08 11:00:00 4.7 22 Este 38 Este 0 -- -- 69
2021-01-08 10:00:00 5 26 Este 38 Este 0 -- -- 64
2021-01-08 09:00:00 4.7 17 Este 25 Este 0 -- -- 66
2021-01-08 08:00:00 4.2 12 Este 29 Este 0 -- -- 68
2021-01-08 07:00:00 4 15 Este 24 Este 0 -- -- 68
2021-01-08 06:00:00 3.7 14 Este 23 Este 0 -- -- 68
2021-01-08 05:00:00 3.5 7 Nordeste 19 Nordeste 0 -- -- 67
2021-01-08 04:00:00 0.9 7 Norte 14 Nordeste 0 -- -- 81
2021-01-08 03:00:00 1 3 Este 6 Sudeste 0 -- -- 79
2021-01-08 02:00:00 0.7 2 Nordeste 7 Norte 0 -- -- 79
2021-01-08 01:00:00 0.5 0 Calma 4 Norte 0 -- -- 80
2021-01-08 00:00:00 1.4 2 Sudeste 10 Norte 0 -- -- 79
2021-01-07 23:00:00 1.2 7 Nordeste 12 Nordeste 0 -- -- 77
2021-01-07 22:00:00 2.4 6 Nordeste 12 Nordeste 0 -- -- 72
2021-01-07 21:00:00 2.9 7 Nordeste 17 Este 0 -- -- 70
2021-01-07 20:00:00 3.3 12 Este 21 Este 0 -- -- 69
2021-01-07 19:00:00 4.3 13 Este 26 Este 0 -- -- 66
2021-01-07 18:00:00 5.6 15 Este 29 Este 0 -- -- 62
2021-01-07 17:00:00 6.3 20 Este 33 Este 0 -- -- 61
2021-01-07 16:00:00 7.4 22 Este 34 Este 0 -- -- 58
2021-01-07 15:00:00 6.7 19 Este 31 Este 0 -- -- 60
2021-01-07 14:00:00 6.4 18 Este 37 Este 0 -- -- 63
2021-01-07 13:00:00 6 23 Este 37 Este 0 -- -- 65
2021-01-07 12:00:00 5.5 27 Este 40 Nordeste 0 -- -- 66
2021-01-07 11:00:00 5.2 20 Este 32 Este 0 -- -- 67
2021-01-07 10:00:00 4.5 7 Nordeste 17 Este 0 -- -- 69
2021-01-07 09:00:00 4.2 10 Este 18 Este 0 -- -- 62
2021-01-07 08:00:00 4.6 11 Este 24 Este 0 -- -- 60
2021-01-07 07:00:00 4.7 8 Norte 14 Este 0 -- -- 57
2021-01-07 06:00:00 3.6 7 Nordeste 9 Nordeste 0 -- -- 63
2021-01-07 05:00:00 4.4 0 Calma 18 Este 0 -- -- 54
2021-01-07 04:00:00 4.8 11 Este 16 Este 0 -- -- 50
2021-01-07 03:00:00 4.7 7 Nordeste 17 Este 0 -- -- 51
2021-01-07 02:00:00 4.3 13 Este 21 Este 0 -- -- 52
2021-01-07 01:00:00 5.2 13 Este 23 Nordeste 0 -- -- 49
2021-01-07 00:00:00 5.4 15 Este 22 Este 0 -- -- 45
2021-01-06 23:00:00 5.5 17 Este 27 Nordeste 0 -- -- 44
2021-01-06 22:00:00 5.4 16 Este 31 Nordeste 0 -- -- 46
2021-01-06 21:00:00 5.8 20 Nordeste 26 Nordeste 0 -- -- 46
2021-01-06 20:00:00 5.9 14 Nordeste 21 Nordeste 0 -- -- 47
2021-01-06 19:00:00 5.7 13 Nordeste 19 Este 0 -- -- 48
2021-01-06 18:00:00 6.2 13 Este 20 Este 0 -- -- 46
2021-01-06 17:00:00 7.2 16 Este 28 Este 0 -- -- 42
2021-01-06 16:00:00 7.3 18 Este 30 Este 0 -- -- 41
2021-01-06 15:00:00 8.2 19 Este 32 Este 0 -- -- 32
2021-01-06 14:00:00 7.8 18 Este 29 Este 0 -- -- 40
2021-01-06 13:00:00 5.7 12 Este 17 Este 0 -- -- 62
2021-01-06 12:00:00 3.5 7 Este 11 Este 0 -- -- 64
2021-01-06 11:00:00 1.6 0 Calma 15 Este 0 -- -- 68
2021-01-06 10:00:00 0.8 13 Nordeste 17 Este 0 -- -- 68
2021-01-06 09:00:00 -0.1 9 Este 12 Nordeste 0 -- -- 74
2021-01-06 08:00:00 -1.2 0 Calma 12 Este 0 -- -- 80
2021-01-06 07:00:00 0.5 10 Nordeste 13 Nordeste 0 -- -- 74
2021-01-06 06:00:00 1 10 Este 13 Este 0 -- -- 74
2021-01-06 05:00:00 0.1 8 Nordeste 11 Nordeste 0 -- -- 77
2021-01-06 04:00:00 1.6 10 Este 13 Nordeste 0 -- -- 72
2021-01-06 03:00:00 0.1 9 Nordeste 13 Nordeste 0 -- -- 78
2021-01-06 02:00:00 1.7 12 Nordeste 14 Nordeste 0 -- -- 73
2021-01-06 01:00:00 1.8 10 Nordeste 12 Nordeste 0 -- -- 73
2021-01-06 00:00:00 0.5 10 Nordeste 11 Nordeste 0 -- -- 80
2021-01-05 23:00:00 0.9 7 Nordeste 9 Norte 0 -- -- 79
2021-01-05 22:00:00 1 9 Norte 12 Norte 0 -- -- 82
2021-01-05 21:00:00 1.1 9 Norte 11 Norte 0 -- -- 84
2021-01-05 20:00:00 1.5 9 Norte 10 Norte 0 -- -- 87
2021-01-05 19:00:00 2.3 6 Norte 8 Norte 0 -- -- 88
2021-01-05 18:00:00 6.4 0 Calma 4 Sudeste 0 -- -- 74
2021-01-05 17:00:00 6.9 0 Calma 8 Sudoeste 0 -- -- 75
2021-01-05 16:00:00 6.8 4 Sudoeste 10 Sudeste 0 -- -- 79
2021-01-05 15:00:00 4.5 5 Sudeste 13 Este 0 -- -- 90
2021-01-05 14:00:00 2.9 5 Sudeste 12 Este 0 -- -- 98
2021-01-05 13:00:00 2.1 8 Este 18 Este 0 -- -- 98
2021-01-05 12:00:00 1.4 10 Este 16 Este 0 -- -- 98
2021-01-05 11:00:00 0.5 12 Este 18 Este 0 -- -- 98
2021-01-05 10:00:00 -0.5 10 Este 17 Este 0 -- -- 97
2021-01-05 09:00:00 -1.3 6 Este 13 Este 0 -- -- 96
2021-01-05 08:00:00 -0.9 10 Este 17 Nordeste 0 -- -- 97
2021-01-05 07:00:00 -0.6 15 Nordeste 19 Nordeste 0 -- -- 97
2021-01-05 06:00:00 -0.5 9 Este 14 Este 0 -- -- 94
2021-01-05 05:00:00 1.1 2 Nordeste 10 Nordeste 0 -- -- 89
2021-01-05 04:00:00 0.9 8 Nordeste 12 Nordeste 0 -- -- 90
2021-01-05 03:00:00 1.5 4 Este 13 Nordeste 0 -- -- 93
2021-01-05 02:00:00 1.6 8 Nordeste 12 Nordeste 0 -- -- 95
2021-01-05 01:00:00 1.4 8 Nordeste 14 Nordeste 0 -- -- 92
2021-01-05 00:00:00 2.1 7 Nordeste 13 Este 0 -- -- 90
2021-01-04 23:00:00 1.7 6 Nordeste 12 Nordeste 0 -- -- 83
2021-01-04 22:00:00 1 12 Nordeste 13 Nordeste 0 -- -- 87
2021-01-04 21:00:00 1.8 5 Nordeste 11 Sudeste 0 -- -- 92
2021-01-04 20:00:00 2.7 3 Nordeste 12 Nordeste 0 -- -- 92
2021-01-04 19:00:00 3.6 2 Este 7 Norte 0 -- -- 89
2021-01-04 18:00:00 5.2 5 Nordeste 9 Sudoeste 0 -- -- 85
2021-01-04 17:00:00 6.2 9 Sur 16 Sur 0 -- -- 82
2021-01-04 16:00:00 7 8 Sudoeste 12 Sudoeste 0 -- -- 79
2021-01-04 15:00:00 6.7 5 Sudoeste 14 Sudoeste 0 -- -- 81
2021-01-04 14:00:00 4.6 4 Sur 6 Sudoeste 0 -- -- 94
2021-01-04 13:00:00 3.1 0 Calma 9 Sur 0 -- -- 96
2021-01-04 12:00:00 2.6 4 Sudeste 8 Sur 0 -- -- 95
2021-01-04 11:00:00 2.2 6 Sudeste 9 Sudeste 0 -- -- 93
2021-01-04 10:00:00 1.5 2 Este 4 Este 0 -- -- 95
2021-01-04 09:00:00 0.9 3 Oeste 10 Noroeste 0 -- -- 94
2021-01-04 08:00:00 1.6 8 Noroeste 13 Noroeste 0 -- -- 89
2021-01-04 07:00:00 1.3 10 Noroeste 14 Noroeste 0 -- -- 92
2021-01-04 06:00:00 1.5 10 Oeste 18 Noroeste 0 -- -- 87
2021-01-04 05:00:00 1.3 15 Noroeste 20 Noroeste 0 -- -- 90
2021-01-04 04:00:00 1.4 14 Noroeste 17 Noroeste 0 -- -- 88
2021-01-04 03:00:00 0.9 12 Noroeste 16 Oeste 0 -- -- 87
2021-01-04 02:00:00 1.9 17 Noroeste 25 Noroeste 0 -- -- 81
2021-01-04 01:00:00 0.6 11 Noroeste 15 Noroeste 0 -- -- 84
2021-01-04 00:00:00 2.7 12 Noroeste 20 Norte 0 -- -- 76
2021-01-03 23:00:00 2.5 10 Noroeste 13 Noroeste 0 -- -- 79
2021-01-03 22:00:00 2.2 5 Oeste 8 Sudoeste 0 -- -- 79
2021-01-03 21:00:00 3.4 4 Oeste 10 Noroeste 0 -- -- 72
2021-01-03 20:00:00 3.6 9 Oeste 14 Oeste 0 -- -- 68
2021-01-03 19:00:00 4 8 Noroeste 17 Oeste 0 -- -- 67
2021-01-03 18:00:00 6.8 16 Oeste 25 Oeste 0 -- -- 55
2021-01-03 17:00:00 8.4 16 Oeste 27 Oeste 0 -- -- 49
2021-01-03 16:00:00 8.3 18 Noroeste 24 Oeste 0 -- -- 50
2021-01-03 15:00:00 8.1 14 Oeste 23 Oeste 0 -- -- 50
2021-01-03 14:00:00 7.5 13 Sudoeste 24 Sudoeste 0 -- -- 58
2021-01-03 13:00:00 6.3 11 Oeste 16 Oeste 0 -- -- 63
2021-01-03 12:00:00 4.5 8 Sudoeste 13 Sudoeste 0 -- -- 65
2021-01-03 11:00:00 2.8 2 Sudoeste 7 Oeste 0 -- -- 69
2021-01-03 10:00:00 0.9 6 Noroeste 16 Noroeste 0 -- -- 75
2021-01-03 09:00:00 -1 13 Noroeste 16 Noroeste 0 -- -- 82
2021-01-03 08:00:00 -1.1 11 Noroeste 16 Noroeste 0 -- -- 82
2021-01-03 07:00:00 -1.2 9 Noroeste 15 Noroeste 0 -- -- 79
2021-01-03 06:00:00 0 14 Noroeste 18 Noroeste 0 -- -- 76
2021-01-03 05:00:00 -0.8 10 Noroeste 13 Noroeste 0 -- -- 75
2021-01-03 04:00:00 -0.7 11 Oeste 13 Oeste 0 -- -- 71
2021-01-03 03:00:00 0.8 9 Noroeste 12 Noroeste 0 -- -- 66
2021-01-03 02:00:00 0.9 5 Noroeste 16 Noroeste 0 -- -- 64
2021-01-03 01:00:00 1.7 12 Noroeste 17 Noroeste 0 -- -- 61
2021-01-03 00:00:00 1.1 7 Oeste 17 Noroeste 0 -- -- 61
2021-01-02 23:00:00 1.7 14 Noroeste 15 Noroeste 0 -- -- 58
2021-01-02 22:00:00 2.9 5 Norte 19 Noroeste 0 -- -- 54
2021-01-02 21:00:00 2.7 11 Norte 21 Noroeste 0 -- -- 54
2021-01-02 20:00:00 3.5 15 Norte 21 Noroeste 0 -- -- 56
2021-01-02 19:00:00 4.2 18 Noroeste 25 Noroeste 0 -- -- 54
2021-01-02 18:00:00 5.9 18 Noroeste 36 Noroeste 0 -- -- 46
2021-01-02 17:00:00 7.6 27 Noroeste 41 Noroeste 0 -- -- 42
2021-01-02 16:00:00 8 23 Noroeste 31 Noroeste 0 -- -- 42
2021-01-02 15:00:00 8.2 19 Noroeste 32 Oeste 0 -- -- 46
2021-01-02 14:00:00 7.5 20 Noroeste 42 Noroeste 0 -- -- 57